createdAt,value
2018-11-14T00:02:15.634Z,4.73
2018-11-14T00:04:43.034Z,4.77
2018-11-14T00:07:10.542Z,5.37
2018-11-14T00:09:38.050Z,4.70
2018-11-14T00:12:05.473Z,5.27
2018-11-14T00:14:32.869Z,5.23
2018-11-14T00:17:00.286Z,4.93
2018-11-14T00:19:27.770Z,4.70
2018-11-14T00:21:55.334Z,4.17
2018-11-14T00:24:22.769Z,4.57
2018-11-14T00:26:50.395Z,4.17
2018-11-14T00:29:17.750Z,3.70
2018-11-14T00:31:46.027Z,4.30
2018-11-14T00:34:13.482Z,3.97
2018-11-14T00:36:40.922Z,3.67
2018-11-14T00:39:09.341Z,3.80
2018-11-14T00:41:36.749Z,3.80
2018-11-14T00:44:04.144Z,3.70
2018-11-14T00:46:31.569Z,4.27
2018-11-14T00:48:58.992Z,3.70
2018-11-14T00:51:26.370Z,4.33
2018-11-14T00:53:53.794Z,4.00
2018-11-14T00:56:21.231Z,3.70
2018-11-14T00:58:48.803Z,4.10
2018-11-14T01:01:16.278Z,3.93
2018-11-14T01:03:43.721Z,3.37
2018-11-14T01:06:11.144Z,3.77
2018-11-14T01:08:38.607Z,4.10
2018-11-14T01:11:06.033Z,4.10
2018-11-14T01:13:33.459Z,4.23
2018-11-14T01:16:00.924Z,4.13
2018-11-14T01:18:28.355Z,3.30
2018-11-14T01:20:55.790Z,3.47
2018-11-14T01:23:23.250Z,4.00
2018-11-14T01:25:50.710Z,3.83
2018-11-14T01:28:18.085Z,3.90
2018-11-14T01:30:45.573Z,3.60
2018-11-14T01:33:12.975Z,3.50
2018-11-14T01:35:40.451Z,3.83
2018-11-14T01:38:07.864Z,3.40
2018-11-14T01:40:35.293Z,3.27
2018-11-14T01:43:02.721Z,2.97
2018-11-14T01:45:30.191Z,3.70
2018-11-14T01:47:57.622Z,3.57
2018-11-14T01:50:25.014Z,3.23
2018-11-14T01:52:52.522Z,3.17
2018-11-14T01:55:20.889Z,3.00
2018-11-14T01:57:48.306Z,3.03
2018-11-14T02:00:16.904Z,3.47
2018-11-14T02:02:44.335Z,3.10
2018-11-14T02:05:12.065Z,3.57
2018-11-14T02:07:39.566Z,3.13
2018-11-14T02:10:07.873Z,3.17
2018-11-14T02:12:35.447Z,3.00
2018-11-14T02:15:02.904Z,2.90
2018-11-14T02:17:30.318Z,3.07
2018-11-14T02:19:57.762Z,3.00
2018-11-14T02:22:47.214Z,2.87
2018-11-14T02:25:15.169Z,2.80
2018-11-14T02:27:42.734Z,3.60
2018-11-14T02:30:11.049Z,3.20
2018-11-14T02:32:38.466Z,3.30
2018-11-14T02:35:06.016Z,2.97
2018-11-14T02:37:33.649Z,2.97
2018-11-14T02:40:00.961Z,2.70
2018-11-14T02:42:28.390Z,3.10
2018-11-14T02:44:55.814Z,2.67
2018-11-14T02:47:23.232Z,2.97
2018-11-14T02:49:50.677Z,2.67
2018-11-14T02:52:18.132Z,2.70
2018-11-14T02:54:45.570Z,3.03
2018-11-14T02:57:12.985Z,3.07
2018-11-14T02:59:40.438Z,3.13
2018-11-14T03:02:07.990Z,3.27
2018-11-14T03:04:35.455Z,2.87
2018-11-14T03:07:02.928Z,2.73
2018-11-14T03:09:30.337Z,2.53
2018-11-14T03:11:57.781Z,3.20
2018-11-14T03:14:25.229Z,2.97
2018-11-14T03:16:52.674Z,3.13
2018-11-14T03:19:20.069Z,3.13
2018-11-14T03:21:47.526Z,3.13
2018-11-14T03:24:14.991Z,3.23
2018-11-14T03:26:42.466Z,3.07
2018-11-14T03:29:10.167Z,3.07
2018-11-14T03:31:37.669Z,3.30
2018-11-14T03:34:05.385Z,3.43
2018-11-14T03:36:32.850Z,3.23
2018-11-14T03:39:00.304Z,3.50
2018-11-14T03:41:27.679Z,3.07
2018-11-14T03:43:55.132Z,3.33
2018-11-14T03:46:22.575Z,3.23
2018-11-14T03:48:50.049Z,3.10
2018-11-14T03:51:17.494Z,3.33
2018-11-14T03:53:44.914Z,3.33
2018-11-14T03:56:12.377Z,3.33
2018-11-14T03:58:39.839Z,3.40
2018-11-14T04:01:07.972Z,2.93
2018-11-14T04:03:35.414Z,3.50
2018-11-14T04:06:02.899Z,3.50
2018-11-14T04:08:30.355Z,3.40
2018-11-14T04:10:57.783Z,3.57
2018-11-14T04:13:25.243Z,3.30
2018-11-14T04:15:52.666Z,3.47
2018-11-14T04:18:20.118Z,3.27
2018-11-14T04:20:47.535Z,3.40
2018-11-14T04:23:14.939Z,3.80
2018-11-14T04:25:42.336Z,3.60
2018-11-14T04:28:09.815Z,3.57
2018-11-14T04:30:37.209Z,3.50
2018-11-14T04:33:04.774Z,3.17
2018-11-14T04:35:32.237Z,3.63
2018-11-14T04:37:59.662Z,3.20
2018-11-14T04:40:27.163Z,3.83
2018-11-14T04:42:54.594Z,4.27
2018-11-14T04:45:23.265Z,3.73
2018-11-14T04:47:50.799Z,3.77
2018-11-14T04:50:19.870Z,3.20
2018-11-14T04:52:48.105Z,3.37
2018-11-14T04:55:16.586Z,3.57
2018-11-14T04:57:44.416Z,4.00
2018-11-14T05:00:12.630Z,4.10
2018-11-14T05:02:41.129Z,4.37
2018-11-14T05:05:09.602Z,4.00
2018-11-14T05:07:37.125Z,4.13
2018-11-14T05:10:05.378Z,4.37
2018-11-14T05:12:32.801Z,4.33
2018-11-14T05:15:00.284Z,4.83
2018-11-14T05:17:27.681Z,4.27
2018-11-14T05:19:55.098Z,4.23
2018-11-14T05:22:22.557Z,4.43
2018-11-14T05:24:50.074Z,4.57
2018-11-14T05:27:17.450Z,4.27
2018-11-14T05:29:44.854Z,4.33
2018-11-14T05:32:12.263Z,3.70
2018-11-14T05:34:39.758Z,4.33
2018-11-14T05:37:07.174Z,4.10
2018-11-14T05:39:34.689Z,4.40
2018-11-14T05:42:02.132Z,4.10
2018-11-14T05:44:29.537Z,3.90
2018-11-14T05:46:56.988Z,3.40
2018-11-14T05:49:24.446Z,4.13
2018-11-14T05:51:51.826Z,4.00
2018-11-14T05:54:19.316Z,3.60
2018-11-14T05:56:46.765Z,3.93
2018-11-14T05:59:14.235Z,3.87
2018-11-14T06:01:41.684Z,3.77
2018-11-14T06:04:10.047Z,3.73
2018-11-14T06:06:37.450Z,3.67
2018-11-14T06:09:07.094Z,3.80
2018-11-14T06:11:34.534Z,4.17
2018-11-14T06:14:02.846Z,4.23
2018-11-14T06:16:30.324Z,3.90
2018-11-14T06:18:57.764Z,4.03
2018-11-14T06:21:25.203Z,4.20
2018-11-14T06:23:52.652Z,4.90
2018-11-14T06:26:20.164Z,3.70
2018-11-14T06:28:47.592Z,3.17
2018-11-14T06:31:15.023Z,3.77
2018-11-14T06:33:42.573Z,4.30
2018-11-14T06:36:10.031Z,4.03
2018-11-14T06:38:37.459Z,3.87
2018-11-14T06:41:04.954Z,4.37
2018-11-14T06:43:32.334Z,4.17
2018-11-14T06:45:59.714Z,3.70
2018-11-14T06:48:27.126Z,3.80
2018-11-14T06:50:54.514Z,4.30
2018-11-14T06:53:21.898Z,3.70
2018-11-14T06:55:49.335Z,3.73
2018-11-14T06:58:16.726Z,3.80
2018-11-14T07:00:44.149Z,3.50
2018-11-14T07:03:11.611Z,3.90
2018-11-14T07:05:39.989Z,3.77
2018-11-14T07:08:07.314Z,3.00
2018-11-14T07:10:35.934Z,4.03
2018-11-14T07:13:04.233Z,3.47
2018-11-14T07:15:31.708Z,4.00
2018-11-14T07:17:59.173Z,3.87
2018-11-14T07:20:27.961Z,4.00
2018-11-14T07:22:55.337Z,3.93
2018-11-14T07:25:22.763Z,2.90
2018-11-14T07:27:50.200Z,3.60
2018-11-14T07:30:19.046Z,3.63
2018-11-14T07:32:47.869Z,3.47
2018-11-14T07:35:16.102Z,3.70
2018-11-14T07:37:46.574Z,3.70
2018-11-14T07:40:14.336Z,4.20
2018-11-14T07:42:42.695Z,3.27
2018-11-14T07:45:11.865Z,3.60
2018-11-14T07:47:39.324Z,3.67
2018-11-14T07:50:08.210Z,3.90
2018-11-14T07:52:35.665Z,4.17
2018-11-14T07:55:03.111Z,3.77
2018-11-14T07:57:30.507Z,4.10
2018-11-14T07:59:57.898Z,3.20
2018-11-14T08:02:25.303Z,3.83
2018-11-14T08:04:52.689Z,3.43
2018-11-14T08:07:20.069Z,3.73
2018-11-14T08:09:47.481Z,3.30
2018-11-14T08:12:14.897Z,3.30
2018-11-14T08:14:42.281Z,2.83
2018-11-14T08:17:09.685Z,3.10
2018-11-14T08:19:37.079Z,3.83
2018-11-14T08:22:04.869Z,2.53
2018-11-14T08:24:32.382Z,3.30
2018-11-14T08:26:59.789Z,3.70
2018-11-14T08:29:27.244Z,2.63
2018-11-14T08:31:54.744Z,3.27
2018-11-14T08:34:22.165Z,3.37
2018-11-14T08:36:49.546Z,3.87
2018-11-14T08:39:17.122Z,3.47
2018-11-14T08:53:45.766Z,3.47
2018-11-14T08:56:13.174Z,3.47
2018-11-14T08:58:40.627Z,3.70
2018-11-14T09:01:08.131Z,3.33
2018-11-14T09:03:42.324Z,3.03
2018-11-14T09:06:10.143Z,3.30
2018-11-14T09:08:37.550Z,3.30
2018-11-14T09:11:12.361Z,3.47
2018-11-14T09:13:41.906Z,3.27
2018-11-14T09:16:10.005Z,2.57
2018-11-14T09:18:37.489Z,3.73
2018-11-14T09:21:05.201Z,2.97
2018-11-14T09:23:32.638Z,2.80
2018-11-14T09:26:00.083Z,3.10
2018-11-14T09:28:27.771Z,3.80
2018-11-14T09:30:55.985Z,3.23
2018-11-14T09:33:23.450Z,3.00
2018-11-14T09:35:50.832Z,2.97
2018-11-14T09:38:18.241Z,3.23
2018-11-14T09:40:45.732Z,2.50
2018-11-14T09:43:13.075Z,2.73
2018-11-14T09:45:40.469Z,2.77
2018-11-14T09:48:07.912Z,3.07
2018-11-14T09:50:35.315Z,3.27
2018-11-14T09:53:04.913Z,3.37
2018-11-14T09:55:32.317Z,2.60
2018-11-14T09:57:59.730Z,2.73
2018-11-14T10:00:28.405Z,3.13
2018-11-14T10:02:56.815Z,3.27
2018-11-14T10:05:24.760Z,3.30
2018-11-14T10:07:52.205Z,2.97
2018-11-14T10:10:20.741Z,2.97
2018-11-14T10:12:49.149Z,2.90
2018-11-14T10:15:20.510Z,2.73
2018-11-14T10:17:48.321Z,3.13
2018-11-14T10:20:17.078Z,2.90
2018-11-14T10:22:44.754Z,3.27
2018-11-14T10:25:12.964Z,3.03
2018-11-14T10:27:41.242Z,3.47
2018-11-14T10:30:09.612Z,3.30
2018-11-14T10:32:37.022Z,3.30
2018-11-14T10:35:04.873Z,3.50
2018-11-14T10:37:32.306Z,3.70
2018-11-14T10:39:59.722Z,3.10
2018-11-14T10:42:28.049Z,3.10
2018-11-14T10:44:55.441Z,3.13
2018-11-14T10:47:22.877Z,2.40
2018-11-14T10:49:50.248Z,3.10
2018-11-14T10:52:17.636Z,3.07
2018-11-14T10:54:45.060Z,3.30
2018-11-14T10:57:12.441Z,3.00
2018-11-14T10:59:39.867Z,2.97
2018-11-14T11:02:12.666Z,3.20
2018-11-14T11:04:45.558Z,3.10
2018-11-14T11:07:18.222Z,3.67
2018-11-14T11:09:50.926Z,3.10
2018-11-14T11:12:23.616Z,2.90
2018-11-14T11:14:56.402Z,3.00
2018-11-14T11:17:29.065Z,3.47
2018-11-14T11:19:58.613Z,2.70
2018-11-14T11:22:25.989Z,2.37
2018-11-14T11:24:53.410Z,2.70
2018-11-14T11:27:20.822Z,3.57
2018-11-14T11:29:48.286Z,2.47
2018-11-14T11:32:15.755Z,3.20
2018-11-14T11:34:43.158Z,2.67
2018-11-14T11:37:10.559Z,2.40
2018-11-14T11:39:37.984Z,3.17
2018-11-14T11:42:05.450Z,2.90
2018-11-14T11:44:32.946Z,2.57
2018-11-14T11:47:00.302Z,2.53
2018-11-14T11:49:27.676Z,2.80
2018-11-14T11:51:55.089Z,3.03
2018-11-14T11:54:22.490Z,3.07
2018-11-14T11:56:49.885Z,2.67
2018-11-14T11:59:17.301Z,3.30
2018-11-14T12:01:44.701Z,3.20
2018-11-14T12:04:12.079Z,3.33
2018-11-14T12:06:39.469Z,2.93
2018-11-14T12:09:08.094Z,3.07
2018-11-14T12:11:35.479Z,2.50
2018-11-14T12:14:02.914Z,2.40
2018-11-14T12:16:30.349Z,2.20
2018-11-14T12:18:57.766Z,2.40
2018-11-14T12:21:25.141Z,1.97
2018-11-14T12:23:52.568Z,2.67
2018-11-14T12:26:19.955Z,2.27
2018-11-14T12:28:47.350Z,2.90
2018-11-14T12:31:14.912Z,2.50
2018-11-14T12:33:42.126Z,2.17
2018-11-14T12:36:10.250Z,2.33
2018-11-14T12:38:37.695Z,2.53
2018-11-14T12:41:05.094Z,2.27
2018-11-14T12:43:32.475Z,2.10
2018-11-14T12:45:59.903Z,2.30
2018-11-14T12:48:27.780Z,2.17
2018-11-14T12:50:55.192Z,2.63
2018-11-14T12:53:22.800Z,4.97
2018-11-14T12:55:50.194Z,2.47
2018-11-14T12:58:17.634Z,2.80
2018-11-14T13:00:45.274Z,2.57
2018-11-14T13:03:12.704Z,2.33
2018-11-14T13:05:40.074Z,2.40
2018-11-14T13:08:07.491Z,2.20
2018-11-14T13:10:34.873Z,2.20
2018-11-14T13:13:02.267Z,2.20
2018-11-14T13:15:29.735Z,2.30
2018-11-14T13:17:57.173Z,2.67
2018-11-14T13:20:25.204Z,4.43
2018-11-14T13:22:52.610Z,3.20
2018-11-14T13:25:20.029Z,2.73
2018-11-14T13:27:48.166Z,3.27
2018-11-14T13:30:17.157Z,3.07
2018-11-14T13:32:45.323Z,3.87
2018-11-14T13:35:14.100Z,2.90
2018-11-14T13:37:42.226Z,3.20
2018-11-14T13:40:10.374Z,2.90
2018-11-14T13:42:37.794Z,3.30
2018-11-14T13:45:06.015Z,3.33
2018-11-14T13:47:33.404Z,2.57
2018-11-14T13:50:00.839Z,2.20
2018-11-14T13:52:28.267Z,2.90
2018-11-14T13:54:55.658Z,3.07
2018-11-14T13:57:23.030Z,3.53
2018-11-14T13:59:50.553Z,2.50
2018-11-14T14:02:17.938Z,2.60
2018-11-14T14:04:45.378Z,6.70
2018-11-14T14:07:12.787Z,3.40
2018-11-14T14:09:40.173Z,3.33
2018-11-14T14:12:07.590Z,3.57
2018-11-14T14:14:34.979Z,2.73
2018-11-14T14:17:02.391Z,3.40
2018-11-14T14:19:29.780Z,2.97
2018-11-14T14:21:57.257Z,2.70
2018-11-14T14:24:24.660Z,3.80
2018-11-14T14:26:52.068Z,4.20
2018-11-14T14:29:19.490Z,3.73
2018-11-14T14:31:46.905Z,3.87
2018-11-14T14:34:14.318Z,3.93
2018-11-14T14:36:41.774Z,3.33
2018-11-14T14:39:10.241Z,3.70
2018-11-14T14:41:37.645Z,3.33
2018-11-14T14:44:05.091Z,3.07
2018-11-14T14:46:32.495Z,3.53
2018-11-14T14:48:59.991Z,3.50
2018-11-14T14:51:27.378Z,2.83
2018-11-14T14:53:54.787Z,3.17
2018-11-14T14:56:22.241Z,3.67
2018-11-14T14:58:49.718Z,3.60
2018-11-14T15:01:17.177Z,3.13
2018-11-14T15:03:44.582Z,3.30
2018-11-14T15:06:12.037Z,3.43
2018-11-14T15:08:39.448Z,3.30
2018-11-14T15:11:06.858Z,3.90
2018-11-14T15:13:34.279Z,4.13
2018-11-14T15:16:01.738Z,3.57
2018-11-14T15:18:29.138Z,3.60
2018-11-14T15:20:56.569Z,3.27
2018-11-14T15:23:23.988Z,3.97
2018-11-14T15:25:51.369Z,3.57
2018-11-14T15:28:18.834Z,3.97
2018-11-14T15:30:46.227Z,3.27
2018-11-14T15:33:13.635Z,4.10
2018-11-14T15:35:41.095Z,3.80
2018-11-14T15:38:08.630Z,4.57
2018-11-14T15:40:36.167Z,4.43
2018-11-14T15:43:03.635Z,5.33
2018-11-14T15:45:31.332Z,4.03
2018-11-14T15:47:59.066Z,4.13
2018-11-14T15:50:27.780Z,4.93
2018-11-14T15:52:56.005Z,4.00
2018-11-14T15:55:23.667Z,4.07
2018-11-14T15:57:51.189Z,4.87
2018-11-14T16:00:20.044Z,4.60
2018-11-14T16:02:47.496Z,5.00
2018-11-14T16:05:16.142Z,4.97
2018-11-14T16:07:44.636Z,5.30
2018-11-14T16:10:14.157Z,5.47
2018-11-14T16:12:42.150Z,5.27
2018-11-14T16:15:11.231Z,5.77
2018-11-14T16:17:39.463Z,6.27
2018-11-14T16:20:08.067Z,5.90
2018-11-14T16:22:35.753Z,6.23
2018-11-14T16:25:03.528Z,6.03
2018-11-14T16:27:34.588Z,5.63
2018-11-14T16:30:02.137Z,6.10
2018-11-14T16:32:29.881Z,6.13
2018-11-14T16:35:00.100Z,6.40
2018-11-14T16:37:27.657Z,6.27
2018-11-14T16:39:55.083Z,6.23
2018-11-14T16:42:26.099Z,6.90
2018-11-14T16:44:53.503Z,6.53
2018-11-14T16:47:20.960Z,7.20
2018-11-14T16:49:48.410Z,6.77
2018-11-14T16:52:15.832Z,7.60
2018-11-14T16:54:43.241Z,8.17
2018-11-14T16:57:10.674Z,10.30
2018-11-14T16:59:38.090Z,10.67
2018-11-14T17:02:05.562Z,11.77
2018-11-14T17:04:33.002Z,12.10
2018-11-14T17:07:00.428Z,10.40
2018-11-14T17:09:27.867Z,9.77
2018-11-14T17:11:55.408Z,12.20
2018-11-14T17:14:22.854Z,9.73
2018-11-14T17:16:50.349Z,9.53
2018-11-14T17:19:17.803Z,9.67
2018-11-14T17:21:46.103Z,9.60
2018-11-14T17:24:14.305Z,9.77
2018-11-14T17:26:41.742Z,10.23
2018-11-14T17:29:09.222Z,10.40
2018-11-14T17:31:36.795Z,10.10
2018-11-14T17:34:04.280Z,10.13
2018-11-14T17:36:31.691Z,10.53
2018-11-14T17:38:59.105Z,12.10
2018-11-14T17:41:26.553Z,9.67
2018-11-14T17:43:53.984Z,10.90
2018-11-14T17:46:21.384Z,11.60
2018-11-14T17:48:48.965Z,13.10
2018-11-14T17:51:16.358Z,11.87
2018-11-14T17:53:43.788Z,14.27
2018-11-14T17:56:11.582Z,13.13
2018-11-14T17:58:39.067Z,13.00
2018-11-14T18:01:06.539Z,14.20
2018-11-14T18:03:33.979Z,15.33
2018-11-14T18:06:01.389Z,13.70
2018-11-14T18:08:28.810Z,14.80
2018-11-14T18:10:56.218Z,15.33
2018-11-14T18:13:23.598Z,13.23
2018-11-14T18:15:51.054Z,11.43
2018-11-14T18:18:18.541Z,13.03
2018-11-14T18:20:46.085Z,14.10
2018-11-14T18:23:13.511Z,14.87
2018-11-14T18:25:40.947Z,12.87
2018-11-14T18:28:08.337Z,12.57
2018-11-14T18:30:35.788Z,12.83
2018-11-14T18:33:03.330Z,14.13
2018-11-14T18:35:31.717Z,13.83
2018-11-14T18:37:59.882Z,15.07
2018-11-14T18:40:31.776Z,16.17
2018-11-14T18:42:59.184Z,15.70
2018-11-14T18:45:28.002Z,17.07
2018-11-14T18:47:56.230Z,17.67
2018-11-14T18:50:24.477Z,18.27
2018-11-14T18:52:52.113Z,20.87
2018-11-14T18:55:20.845Z,19.60
2018-11-14T18:57:48.778Z,19.47
2018-11-14T19:00:19.603Z,16.77
2018-11-14T19:02:47.109Z,15.80
2018-11-14T19:05:15.136Z,16.10
2018-11-14T19:07:42.732Z,16.63
2018-11-14T19:10:10.919Z,15.90
2018-11-14T19:12:38.575Z,14.67
2018-11-14T19:15:07.600Z,14.67
2018-11-14T19:17:35.151Z,14.30
2018-11-14T19:20:02.693Z,16.03
2018-11-14T19:22:31.624Z,14.97
2018-11-14T19:25:00.884Z,15.43
2018-11-14T19:27:28.582Z,15.33
2018-11-14T19:29:56.062Z,16.37
2018-11-14T19:32:23.795Z,14.87
2018-11-14T19:34:51.450Z,16.47
2018-11-14T19:37:18.896Z,14.03
2018-11-14T19:39:46.342Z,15.90
2018-11-14T19:42:15.290Z,14.63
2018-11-14T19:44:42.924Z,15.03
2018-11-14T19:47:10.369Z,14.80
2018-11-14T19:49:37.813Z,14.50
2018-11-14T19:52:05.239Z,14.37
2018-11-14T19:54:32.914Z,16.57
2018-11-14T19:57:00.340Z,16.77
2018-11-14T19:59:27.759Z,17.53
2018-11-14T20:01:55.250Z,18.63
2018-11-14T20:04:22.916Z,17.40
2018-11-14T20:06:50.330Z,18.90
2018-11-14T20:09:17.762Z,19.60
2018-11-14T20:11:45.860Z,18.27
2018-11-14T20:14:13.278Z,18.97
2018-11-14T20:16:40.693Z,18.27
2018-11-14T20:19:08.350Z,19.60
2018-11-14T20:21:36.215Z,17.50
2018-11-14T20:24:03.744Z,18.10
2018-11-14T20:26:31.172Z,17.40
2018-11-14T20:28:58.558Z,17.00
2018-11-14T20:31:26.357Z,17.03
2018-11-14T20:33:53.836Z,17.40
2018-11-14T20:36:21.747Z,17.73
2018-11-14T20:38:49.182Z,16.80
2018-11-14T20:41:17.261Z,16.93
2018-11-14T20:43:44.670Z,15.90
2018-11-14T20:46:12.074Z,16.93
2018-11-14T20:48:39.491Z,17.23
2018-11-14T20:51:06.894Z,17.47
2018-11-14T20:53:34.301Z,16.20
2018-11-14T20:56:01.707Z,17.23
2018-11-14T20:58:29.830Z,16.70
2018-11-14T21:00:57.299Z,16.43
2018-11-14T21:03:24.750Z,17.70
2018-11-14T21:05:52.264Z,18.57
2018-11-14T21:08:19.606Z,18.23
2018-11-14T21:10:47.020Z,18.93
2018-11-14T21:13:14.457Z,19.27
2018-11-14T21:15:41.890Z,19.30
2018-11-14T21:18:09.333Z,17.63
2018-11-14T21:20:36.776Z,20.87
2018-11-14T21:23:04.374Z,21.30
2018-11-14T21:25:31.765Z,20.63
2018-11-14T21:27:59.183Z,19.73
2018-11-14T21:30:27.908Z,19.90
2018-11-14T21:32:55.311Z,20.47
2018-11-14T21:35:25.573Z,21.70
2018-11-14T21:37:56.065Z,20.60
2018-11-14T21:40:23.469Z,21.43
2018-11-14T21:42:50.909Z,21.20
2018-11-14T21:45:19.656Z,21.00
2018-11-14T21:47:52.444Z,20.53
2018-11-14T21:50:20.987Z,25.47
2018-11-14T21:52:48.826Z,24.33
2018-11-14T21:55:16.271Z,27.20
2018-11-14T21:57:43.737Z,26.90
2018-11-14T22:00:13.647Z,26.03
2018-11-14T22:02:41.783Z,25.63
2018-11-14T22:05:09.990Z,26.50
2018-11-14T22:07:37.778Z,27.30
2018-11-14T22:10:06.834Z,27.77
2018-11-14T22:12:34.270Z,28.57
2018-11-14T22:15:01.820Z,28.93
2018-11-14T22:17:29.398Z,29.73
2018-11-14T22:19:56.839Z,29.57
2018-11-14T22:22:24.250Z,28.97
2018-11-14T22:24:51.641Z,28.27
2018-11-14T22:27:19.062Z,29.37
2018-11-14T22:29:46.439Z,28.77
2018-11-14T22:32:13.813Z,26.00
2018-11-14T22:34:41.262Z,24.53
2018-11-14T22:37:08.605Z,25.13
2018-11-14T22:39:35.998Z,24.03
2018-11-14T22:42:03.416Z,24.93
2018-11-14T22:44:30.844Z,23.53
2018-11-14T22:46:58.243Z,24.47
2018-11-14T22:49:25.652Z,22.57
2018-11-14T22:51:53.047Z,22.97
2018-11-14T22:54:20.419Z,22.30
2018-11-14T22:56:48.098Z,23.60
2018-11-14T22:59:15.461Z,24.40
2018-11-14T23:01:42.854Z,23.57
2018-11-14T23:04:10.285Z,23.97
2018-11-14T23:06:37.736Z,26.23
2018-11-14T23:09:07.210Z,26.60
2018-11-14T23:11:34.629Z,28.03
2018-11-14T23:14:02.027Z,26.87
2018-11-14T23:16:29.423Z,26.70
2018-11-14T23:18:56.876Z,27.17
2018-11-14T23:21:24.236Z,27.93
2018-11-14T23:23:51.629Z,26.80
2018-11-14T23:26:19.058Z,28.20
2018-11-14T23:28:46.431Z,25.87
2018-11-14T23:31:13.849Z,26.07
2018-11-14T23:33:41.246Z,25.00
2018-11-14T23:36:08.608Z,25.43
2018-11-14T23:38:35.968Z,27.80
2018-11-14T23:41:03.394Z,27.17
2018-11-14T23:43:30.773Z,30.00
2018-11-14T23:45:58.153Z,27.87
2018-11-14T23:48:25.637Z,26.60
2018-11-14T23:50:53.031Z,25.27
2018-11-14T23:53:20.400Z,26.20
2018-11-14T23:55:47.810Z,26.30
2018-11-14T23:58:15.186Z,28.43
